sensor_id;sensor_type;location;lat;lon;timestamp;pressure;altitude;pressure_sealevel;temperature;humidity
32197;BME280;18697;42.770;23.400;2022-12-29T00:00:54;96607.69;;;6.15;78.95
32197;BME280;18697;42.770;23.400;2022-12-29T00:03:19;96613.59;;;6.13;79.28
32197;BME280;18697;42.770;23.400;2022-12-29T00:05:45;96609.78;;;6.04;79.81
32197;BME280;18697;42.770;23.400;2022-12-29T00:08:10;96611.47;;;5.94;80.41
32197;BME280;18697;42.770;23.400;2022-12-29T00:10:35;96604.81;;;5.91;80.47
32197;BME280;18697;42.770;23.400;2022-12-29T00:13:00;96613.47;;;5.90;80.56
32197;BME280;18697;42.770;23.400;2022-12-29T00:15:44;96611.47;;;5.94;80.47
32197;BME280;18697;42.770;23.400;2022-12-29T00:18:09;96611.38;;;6.01;80.33
32197;BME280;18697;42.770;23.400;2022-12-29T00:20:36;96609.34;;;6.05;79.86
32197;BME280;18697;42.770;23.400;2022-12-29T00:23:20;96615.31;;;6.00;79.83
32197;BME280;18697;42.770;23.400;2022-12-29T00:26:03;96606.22;;;6.03;80.13
32197;BME280;18697;42.770;23.400;2022-12-29T00:28:47;96618.03;;;6.04;79.96
32197;BME280;18697;42.770;23.400;2022-12-29T00:31:31;96618.88;;;6.01;80.43
32197;BME280;18697;42.770;23.400;2022-12-29T00:34:15;96623.22;;;5.98;80.30
32197;BME280;18697;42.770;23.400;2022-12-29T00:36:59;96623.13;;;6.09;80.05
32197;BME280;18697;42.770;23.400;2022-12-29T00:39:25;96623.81;;;6.16;79.59
32197;BME280;18697;42.770;23.400;2022-12-29T00:42:09;96629.56;;;6.33;79.50
32197;BME280;18697;42.770;23.400;2022-12-29T00:44:52;96627.72;;;6.53;78.59
32197;BME280;18697;42.770;23.400;2022-12-29T00:47:18;96633.50;;;6.66;77.28
32197;BME280;18697;42.770;23.400;2022-12-29T00:49:43;96632.22;;;6.70;76.48
32197;BME280;18697;42.770;23.400;2022-12-29T00:52:09;96632.09;;;6.81;76.55
32197;BME280;18697;42.770;23.400;2022-12-29T00:54:36;96636.25;;;6.92;76.10
32197;BME280;18697;42.770;23.400;2022-12-29T00:57:02;96640.44;;;7.04;75.26
32197;BME280;18697;42.770;23.400;2022-12-29T00:59:28;96639.19;;;7.09;74.51
32197;BME280;18697;42.770;23.400;2022-12-29T01:01:53;96635.28;;;7.06;74.21
32197;BME280;18697;42.770;23.400;2022-12-29T01:04:20;96636.22;;;6.96;74.15
32197;BME280;18697;42.770;23.400;2022-12-29T01:06:45;96636.00;;;6.83;74.40
32197;BME280;18697;42.770;23.400;2022-12-29T01:09:10;96629.81;;;6.72;74.36
32197;BME280;18697;42.770;23.400;2022-12-29T01:11:54;96624.47;;;6.62;74.85
32197;BME280;18697;42.770;23.400;2022-12-29T01:14:20;96620.50;;;6.63;74.79
32197;BME280;18697;42.770;23.400;2022-12-29T01:16:45;96621.66;;;6.65;74.97
32197;BME280;18697;42.770;23.400;2022-12-29T01:19:11;96629.31;;;6.54;75.12
32197;BME280;18697;42.770;23.400;2022-12-29T01:21:37;96623.00;;;6.53;75.10
32197;BME280;18697;42.770;23.400;2022-12-29T01:24:02;96617.59;;;6.43;74.99
32197;BME280;18697;42.770;23.400;2022-12-29T01:26:27;96627.50;;;6.40;75.49
32197;BME280;18697;42.770;23.400;2022-12-29T01:28:52;96621.56;;;6.42;75.31
32197;BME280;18697;42.770;23.400;2022-12-29T01:31:18;96611.63;;;6.48;75.20
32197;BME280;18697;42.770;23.400;2022-12-29T01:33:43;96606.53;;;6.46;74.93
32197;BME280;18697;42.770;23.400;2022-12-29T01:36:12;96605.66;;;6.53;74.89
32197;BME280;18697;42.770;23.400;2022-12-29T01:38:38;96606.03;;;6.55;74.92
32197;BME280;18697;42.770;23.400;2022-12-29T01:41:04;96600.47;;;6.58;74.51
32197;BME280;18697;42.770;23.400;2022-12-29T01:43:46;96594.53;;;6.60;74.45
32197;BME280;18697;42.770;23.400;2022-12-29T01:49:03;96580.97;;;6.69;74.05
32197;BME280;18697;42.770;23.400;2022-12-29T01:51:30;96588.59;;;6.62;73.96
32197;BME280;18697;42.770;23.400;2022-12-29T01:53:56;96587.63;;;6.45;74.21
32197;BME280;18697;42.770;23.400;2022-12-29T01:56:23;96593.69;;;6.33;74.50
32197;BME280;18697;42.770;23.400;2022-12-29T01:58:50;96584.94;;;6.38;74.55
32197;BME280;18697;42.770;23.400;2022-12-29T02:01:19;96583.75;;;6.39;74.48
32197;BME280;18697;42.770;23.400;2022-12-29T02:03:45;96587.16;;;6.50;74.71
32197;BME280;18697;42.770;23.400;2022-12-29T02:06:13;96574.38;;;6.63;74.04
32197;BME280;18697;42.770;23.400;2022-12-29T02:08:41;96583.25;;;6.74;73.46
32197;BME280;18697;42.770;23.400;2022-12-29T02:11:06;96586.38;;;6.76;72.54
32197;BME280;18697;42.770;23.400;2022-12-29T02:13:32;96581.28;;;6.75;72.01
32197;BME280;18697;42.770;23.400;2022-12-29T02:39:07;96572.38;;;6.90;70.32
32197;BME280;18697;42.770;23.400;2022-12-29T02:47:05;96565.13;;;7.00;71.05
32197;BME280;18697;42.770;23.400;2022-12-29T02:49:39;96577.22;;;7.10;70.72
32197;BME280;18697;42.770;23.400;2022-12-29T02:52:10;96568.41;;;7.18;71.79
32197;BME280;18697;42.770;23.400;2022-12-29T02:54:39;96573.94;;;7.18;70.91
32197;BME280;18697;42.770;23.400;2022-12-29T02:59:49;96561.25;;;7.21;70.96
32197;BME280;18697;42.770;23.400;2022-12-29T03:12:48;96571.00;;;6.48;73.46
32197;BME280;18697;42.770;23.400;2022-12-29T03:15:39;96572.09;;;6.24;74.47
32197;BME280;18697;42.770;23.400;2022-12-29T03:21:07;96569.78;;;5.85;76.41
32197;BME280;18697;42.770;23.400;2022-12-29T03:23:34;96564.78;;;5.73;76.65
32197;BME280;18697;42.770;23.400;2022-12-29T03:26:01;96571.13;;;5.70;76.79
32197;BME280;18697;42.770;23.400;2022-12-29T03:28:30;96568.03;;;5.64;77.49
32197;BME280;18697;42.770;23.400;2022-12-29T03:30:57;96563.34;;;5.61;77.53
32197;BME280;18697;42.770;23.400;2022-12-29T03:33:24;96559.09;;;5.49;78.52
32197;BME280;18697;42.770;23.400;2022-12-29T03:35:52;96556.34;;;5.49;78.54
32197;BME280;18697;42.770;23.400;2022-12-29T03:38:34;96558.78;;;5.44;78.96
32197;BME280;18697;42.770;23.400;2022-12-29T03:41:01;96557.50;;;5.52;79.22
32197;BME280;18697;42.770;23.400;2022-12-29T03:43:28;96557.19;;;5.43;79.22
32197;BME280;18697;42.770;23.400;2022-12-29T03:45:54;96563.94;;;5.38;79.39
32197;BME280;18697;42.770;23.400;2022-12-29T03:48:19;96557.59;;;5.41;79.30
32197;BME280;18697;42.770;23.400;2022-12-29T03:50:44;96565.00;;;5.51;78.85
32197;BME280;18697;42.770;23.400;2022-12-29T03:53:09;96565.75;;;5.55;78.38
32197;BME280;18697;42.770;23.400;2022-12-29T03:55:35;96569.72;;;5.51;78.57
32197;BME280;18697;42.770;23.400;2022-12-29T03:58:00;96569.75;;;5.47;79.26
32197;BME280;18697;42.770;23.400;2022-12-29T04:00:25;96572.38;;;5.61;79.21
32197;BME280;18697;42.770;23.400;2022-12-29T04:02:50;96579.72;;;5.75;79.33
32197;BME280;18697;42.770;23.400;2022-12-29T04:05:16;96576.75;;;5.97;79.02
32197;BME280;18697;42.770;23.400;2022-12-29T04:07:41;96573.47;;;6.09;77.95
32197;BME280;18697;42.770;23.400;2022-12-29T04:10:06;96575.44;;;6.08;75.86
32197;BME280;18697;42.770;23.400;2022-12-29T04:12:31;96572.22;;;6.13;75.51
32197;BME280;18697;42.770;23.400;2022-12-29T04:14:57;96577.72;;;6.17;75.37
32197;BME280;18697;42.770;23.400;2022-12-29T04:17:22;96579.19;;;6.25;75.29
32197;BME280;18697;42.770;23.400;2022-12-29T04:19:47;96574.75;;;6.35;75.76
32197;BME280;18697;42.770;23.400;2022-12-29T04:22:13;96573.91;;;6.38;74.00
32197;BME280;18697;42.770;23.400;2022-12-29T04:24:38;96574.69;;;6.38;74.22
32197;BME280;18697;42.770;23.400;2022-12-29T04:27:03;96576.25;;;6.39;73.83
32197;BME280;18697;42.770;23.400;2022-12-29T04:29:28;96582.16;;;6.41;74.51
32197;BME280;18697;42.770;23.400;2022-12-29T04:31:54;96580.91;;;6.46;75.16
32197;BME280;18697;42.770;23.400;2022-12-29T04:34:19;96591.47;;;6.51;74.83
32197;BME280;18697;42.770;23.400;2022-12-29T04:36:44;96597.28;;;6.60;75.00
32197;BME280;18697;42.770;23.400;2022-12-29T04:39:09;96596.00;;;6.68;74.58
32197;BME280;18697;42.770;23.400;2022-12-29T04:41:35;96593.28;;;6.65;73.53
32197;BME280;18697;42.770;23.400;2022-12-29T04:44:00;96602.59;;;6.74;73.95
32197;BME280;18697;42.770;23.400;2022-12-29T04:46:25;96598.56;;;6.79;74.82
32197;BME280;18697;42.770;23.400;2022-12-29T04:48:50;96606.81;;;6.82;74.94
32197;BME280;18697;42.770;23.400;2022-12-29T04:51:16;96605.19;;;6.85;74.76
32197;BME280;18697;42.770;23.400;2022-12-29T04:53:41;96607.19;;;6.84;72.41
32197;BME280;18697;42.770;23.400;2022-12-29T04:56:06;96611.88;;;6.87;71.92
32197;BME280;18697;42.770;23.400;2022-12-29T04:58:32;96605.97;;;6.85;71.87
32197;BME280;18697;42.770;23.400;2022-12-29T05:00:57;96611.19;;;6.80;71.95
32197;BME280;18697;42.770;23.400;2022-12-29T05:03:22;96615.88;;;6.83;73.49
32197;BME280;18697;42.770;23.400;2022-12-29T05:05:47;96609.22;;;6.80;74.87
32197;BME280;18697;42.770;23.400;2022-12-29T05:08:13;96611.22;;;6.76;73.62
32197;BME280;18697;42.770;23.400;2022-12-29T05:10:38;96610.50;;;6.72;74.32
32197;BME280;18697;42.770;23.400;2022-12-29T05:13:03;96614.00;;;6.76;75.26
32197;BME280;18697;42.770;23.400;2022-12-29T05:15:28;96623.38;;;6.82;75.39
32197;BME280;18697;42.770;23.400;2022-12-29T05:20:43;96624.50;;;6.88;75.26
32197;BME280;18697;42.770;23.400;2022-12-29T05:23:08;96613.81;;;6.90;74.66
32197;BME280;18697;42.770;23.400;2022-12-29T05:25:33;96609.78;;;6.95;74.81
32197;BME280;18697;42.770;23.400;2022-12-29T05:27:59;96612.50;;;6.99;75.42
32197;BME280;18697;42.770;23.400;2022-12-29T05:30:25;96616.41;;;7.01;75.66
32197;BME280;18697;42.770;23.400;2022-12-29T05:32:50;96615.94;;;7.06;74.25
32197;BME280;18697;42.770;23.400;2022-12-29T05:35:16;96625.75;;;7.11;75.10
32197;BME280;18697;42.770;23.400;2022-12-29T05:37:44;96623.81;;;7.08;74.86
32197;BME280;18697;42.770;23.400;2022-12-29T05:40:10;96625.38;;;7.09;75.57
32197;BME280;18697;42.770;23.400;2022-12-29T05:42:36;96629.41;;;7.04;73.76
32197;BME280;18697;42.770;23.400;2022-12-29T05:45:01;96618.66;;;7.10;72.20
32197;BME280;18697;42.770;23.400;2022-12-29T05:47:26;96630.44;;;7.14;72.58
32197;BME280;18697;42.770;23.400;2022-12-29T05:49:51;96626.44;;;7.18;74.30
32197;BME280;18697;42.770;23.400;2022-12-29T05:55:10;96630.34;;;7.21;73.95
32197;BME280;18697;42.770;23.400;2022-12-29T05:57:36;96628.41;;;7.18;73.93
32197;BME280;18697;42.770;23.400;2022-12-29T06:00:02;96630.38;;;7.17;75.12
32197;BME280;18697;42.770;23.400;2022-12-29T06:02:27;96631.16;;;7.18;75.49
32197;BME280;18697;42.770;23.400;2022-12-29T06:04:52;96646.91;;;7.21;72.49
32197;BME280;18697;42.770;23.400;2022-12-29T06:07:18;96647.59;;;7.29;73.67
32197;BME280;18697;42.770;23.400;2022-12-29T06:09:43;96649.88;;;7.34;74.03
32197;BME280;18697;42.770;23.400;2022-12-29T06:12:08;96643.88;;;7.39;72.42
32197;BME280;18697;42.770;23.400;2022-12-29T06:14:33;96640.94;;;7.49;72.51
32197;BME280;18697;42.770;23.400;2022-12-29T06:16:59;96649.13;;;7.56;72.73
32197;BME280;18697;42.770;23.400;2022-12-29T06:19:24;96633.13;;;7.68;72.96
32197;BME280;18697;42.770;23.400;2022-12-29T06:21:50;96646.97;;;7.91;71.21
32197;BME280;18697;42.770;23.400;2022-12-29T06:24:17;96636.22;;;8.16;69.95
32197;BME280;18697;42.770;23.400;2022-12-29T06:26:42;96636.47;;;8.45;68.77
32197;BME280;18697;42.770;23.400;2022-12-29T06:29:08;96645.22;;;8.64;68.18
32197;BME280;18697;42.770;23.400;2022-12-29T06:31:33;96640.81;;;8.66;67.82
32197;BME280;18697;42.770;23.400;2022-12-29T06:33:58;96642.00;;;8.65;67.58
32197;BME280;18697;42.770;23.400;2022-12-29T06:36:24;96640.88;;;8.63;67.18
32197;BME280;18697;42.770;23.400;2022-12-29T06:38:49;96634.69;;;8.55;68.97
32197;BME280;18697;42.770;23.400;2022-12-29T06:41:17;96647.06;;;8.50;67.47
32197;BME280;18697;42.770;23.400;2022-12-29T06:43:42;96642.50;;;8.40;68.81
32197;BME280;18697;42.770;23.400;2022-12-29T06:46:07;96642.22;;;8.35;68.23
32197;BME280;18697;42.770;23.400;2022-12-29T06:48:33;96653.03;;;8.25;68.29
32197;BME280;18697;42.770;23.400;2022-12-29T06:50:58;96654.47;;;8.14;68.44
32197;BME280;18697;42.770;23.400;2022-12-29T06:53:23;96658.38;;;8.16;69.94
32197;BME280;18697;42.770;23.400;2022-12-29T06:55:48;96649.19;;;8.19;69.40
32197;BME280;18697;42.770;23.400;2022-12-29T06:58:14;96654.03;;;8.15;68.94
32197;BME280;18697;42.770;23.400;2022-12-29T07:00:39;96652.06;;;8.16;68.05
32197;BME280;18697;42.770;23.400;2022-12-29T07:03:04;96659.22;;;8.13;67.28
32197;BME280;18697;42.770;23.400;2022-12-29T07:05:30;96656.38;;;8.17;68.25
32197;BME280;18697;42.770;23.400;2022-12-29T07:07:57;96653.16;;;8.18;68.14
32197;BME280;18697;42.770;23.400;2022-12-29T07:10:22;96654.53;;;8.10;66.74
32197;BME280;18697;42.770;23.400;2022-12-29T07:12:48;96658.44;;;8.13;68.00
32197;BME280;18697;42.770;23.400;2022-12-29T07:15:13;96646.84;;;8.18;68.36
32197;BME280;18697;42.770;23.400;2022-12-29T07:17:38;96647.31;;;8.36;68.28
32197;BME280;18697;42.770;23.400;2022-12-29T07:20:04;96654.94;;;8.72;66.55
32197;BME280;18697;42.770;23.400;2022-12-29T07:22:29;96653.38;;;9.07;64.44
32197;BME280;18697;42.770;23.400;2022-12-29T07:24:55;96648.16;;;9.45;63.15
32197;BME280;18697;42.770;23.400;2022-12-29T07:27:20;96648.50;;;9.79;62.26
32197;BME280;18697;42.770;23.400;2022-12-29T07:29:45;96645.19;;;10.01;62.13
32197;BME280;18697;42.770;23.400;2022-12-29T07:32:10;96653.50;;;10.17;60.82
32197;BME280;18697;42.770;23.400;2022-12-29T07:34:36;96647.59;;;10.15;60.74
32197;BME280;18697;42.770;23.400;2022-12-29T07:37:01;96640.94;;;10.12;60.84
32197;BME280;18697;42.770;23.400;2022-12-29T07:39:26;96649.09;;;10.03;62.08
32197;BME280;18697;42.770;23.400;2022-12-29T07:41:52;96653.09;;;9.86;62.41
32197;BME280;18697;42.770;23.400;2022-12-29T07:44:17;96651.72;;;9.78;63.01
32197;BME280;18697;42.770;23.400;2022-12-29T07:46:42;96647.50;;;9.57;63.68
32197;BME280;18697;42.770;23.400;2022-12-29T07:49:07;96660.50;;;9.60;64.73
32197;BME280;18697;42.770;23.400;2022-12-29T07:51:33;96656.59;;;9.58;65.40
32197;BME280;18697;42.770;23.400;2022-12-29T07:53:58;96656.84;;;9.63;65.20
32197;BME280;18697;42.770;23.400;2022-12-29T07:56:25;96662.84;;;9.62;64.99
32197;BME280;18697;42.770;23.400;2022-12-29T07:58:50;96659.34;;;9.58;64.58
32197;BME280;18697;42.770;23.400;2022-12-29T08:01:15;96668.38;;;9.62;65.26
32197;BME280;18697;42.770;23.400;2022-12-29T08:03:41;96660.13;;;9.74;65.45
32197;BME280;18697;42.770;23.400;2022-12-29T08:06:08;96661.50;;;9.99;64.36
32197;BME280;18697;42.770;23.400;2022-12-29T08:08:33;96657.41;;;10.36;63.13
32197;BME280;18697;42.770;23.400;2022-12-29T08:10:59;96659.31;;;10.80;61.26
32197;BME280;18697;42.770;23.400;2022-12-29T08:13:24;96660.06;;;11.35;60.07
32197;BME280;18697;42.770;23.400;2022-12-29T08:15:49;96665.63;;;11.61;59.79
32197;BME280;18697;42.770;23.400;2022-12-29T08:18:14;96655.69;;;11.98;57.68
32197;BME280;18697;42.770;23.400;2022-12-29T08:20:40;96658.44;;;12.10;56.26
32197;BME280;18697;42.770;23.400;2022-12-29T08:23:05;96656.81;;;12.35;56.20
32197;BME280;18697;42.770;23.400;2022-12-29T08:25:30;96650.91;;;12.33;56.37
32197;BME280;18697;42.770;23.400;2022-12-29T08:27:56;96645.47;;;12.29;56.14
32197;BME280;18697;42.770;23.400;2022-12-29T08:30:21;96649.06;;;12.17;56.44
32197;BME280;18697;42.770;23.400;2022-12-29T08:32:46;96650.00;;;12.01;57.00
32197;BME280;18697;42.770;23.400;2022-12-29T08:35:12;96646.91;;;11.74;57.73
32197;BME280;18697;42.770;23.400;2022-12-29T08:37:37;96642.81;;;11.66;58.58
32197;BME280;18697;42.770;23.400;2022-12-29T08:40:03;96641.03;;;11.59;59.22
32197;BME280;18697;42.770;23.400;2022-12-29T08:42:29;96647.47;;;11.56;59.40
32197;BME280;18697;42.770;23.400;2022-12-29T08:44:56;96647.25;;;11.38;57.69
32197;BME280;18697;42.770;23.400;2022-12-29T08:47:21;96646.91;;;11.36;58.44
32197;BME280;18697;42.770;23.400;2022-12-29T08:49:46;96643.78;;;10.96;60.88
32197;BME280;18697;42.770;23.400;2022-12-29T08:52:12;96644.25;;;11.07;60.19
32197;BME280;18697;42.770;23.400;2022-12-29T08:54:37;96645.78;;;11.20;60.76
32197;BME280;18697;42.770;23.400;2022-12-29T08:57:02;96633.78;;;11.36;61.10
32197;BME280;18697;42.770;23.400;2022-12-29T08:59:28;96644.25;;;11.32;61.01
32197;BME280;18697;42.770;23.400;2022-12-29T09:01:53;96636.34;;;11.31;60.58
32197;BME280;18697;42.770;23.400;2022-12-29T09:04:18;96636.13;;;11.50;59.81
32197;BME280;18697;42.770;23.400;2022-12-29T09:06:44;96632.13;;;11.51;59.31
32197;BME280;18697;42.770;23.400;2022-12-29T09:09:09;96634.22;;;11.73;59.53
32197;BME280;18697;42.770;23.400;2022-12-29T09:11:35;96630.00;;;11.81;60.08
32197;BME280;18697;42.770;23.400;2022-12-29T09:14:01;96639.59;;;11.80;59.12
32197;BME280;18697;42.770;23.400;2022-12-29T09:16:26;96632.91;;;11.65;58.64
32197;BME280;18697;42.770;23.400;2022-12-29T09:18:52;96619.53;;;11.85;58.85
32197;BME280;18697;42.770;23.400;2022-12-29T09:21:17;96619.88;;;11.87;58.41
32197;BME280;18697;42.770;23.400;2022-12-29T09:23:42;96626.09;;;11.66;59.63
32197;BME280;18697;42.770;23.400;2022-12-29T09:26:08;96624.78;;;11.58;59.99
32197;BME280;18697;42.770;23.400;2022-12-29T09:28:33;96618.88;;;11.68;60.44
32197;BME280;18697;42.770;23.400;2022-12-29T09:30:59;96625.22;;;11.69;58.36
32197;BME280;18697;42.770;23.400;2022-12-29T09:33:24;96618.22;;;11.51;59.35
32197;BME280;18697;42.770;23.400;2022-12-29T09:35:53;96618.09;;;11.55;60.14
32197;BME280;18697;42.770;23.400;2022-12-29T09:38:19;96608.97;;;11.55;59.73
32197;BME280;18697;42.770;23.400;2022-12-29T09:40:45;96609.84;;;11.64;60.41
32197;BME280;18697;42.770;23.400;2022-12-29T09:43:38;96608.72;;;11.74;59.37
32197;BME280;18697;42.770;23.400;2022-12-29T09:46:13;96597.91;;;11.89;59.41
32197;BME280;18697;42.770;23.400;2022-12-29T09:48:44;96595.25;;;11.86;59.79
32197;BME280;18697;42.770;23.400;2022-12-29T09:51:11;96603.00;;;12.03;59.68
32197;BME280;18697;42.770;23.400;2022-12-29T09:53:40;96593.16;;;12.11;58.77
32197;BME280;18697;42.770;23.400;2022-12-29T09:56:10;96596.44;;;12.32;58.94
32197;BME280;18697;42.770;23.400;2022-12-29T09:58:39;96583.03;;;12.39;58.29
32197;BME280;18697;42.770;23.400;2022-12-29T10:01:51;96582.31;;;12.48;57.42
32197;BME280;18697;42.770;23.400;2022-12-29T10:03:56;96585.50;;;12.59;56.83
32197;BME280;18697;42.770;23.400;2022-12-29T10:06:22;96574.97;;;12.63;56.77
32197;BME280;18697;42.770;23.400;2022-12-29T10:24:39;96560.00;;;12.04;57.48
32197;BME280;18697;42.770;23.400;2022-12-29T10:27:05;96558.47;;;12.47;57.67
32197;BME280;18697;42.770;23.400;2022-12-29T10:29:37;96552.06;;;13.21;57.65
32197;BME280;18697;42.770;23.400;2022-12-29T10:32:05;96548.16;;;13.68;54.65
32197;BME280;18697;42.770;23.400;2022-12-29T10:34:34;96540.44;;;13.99;53.35
32197;BME280;18697;42.770;23.400;2022-12-29T10:37:05;96538.56;;;13.87;52.25
32197;BME280;18697;42.770;23.400;2022-12-29T10:44:29;96534.34;;;13.73;53.15
32197;BME280;18697;42.770;23.400;2022-12-29T10:46:57;96529.81;;;13.48;53.62
32197;BME280;18697;42.770;23.400;2022-12-29T10:49:26;96536.47;;;13.51;54.26
32197;BME280;18697;42.770;23.400;2022-12-29T10:51:52;96525.47;;;13.57;54.03
32197;BME280;18697;42.770;23.400;2022-12-29T10:54:21;96521.59;;;13.36;53.56
32197;BME280;18697;42.770;23.400;2022-12-29T10:59:24;96514.88;;;13.24;54.80
32197;BME280;18697;42.770;23.400;2022-12-29T11:01:56;96517.69;;;13.33;54.18
32197;BME280;18697;42.770;23.400;2022-12-29T11:06:48;96515.81;;;13.21;54.96
32197;BME280;18697;42.770;23.400;2022-12-29T11:09:23;96510.75;;;13.56;53.97
32197;BME280;18697;42.770;23.400;2022-12-29T11:11:49;96503.16;;;13.66;54.92
32197;BME280;18697;42.770;23.400;2022-12-29T11:14:18;96499.78;;;13.80;55.12
32197;BME280;18697;42.770;23.400;2022-12-29T11:16:43;96505.22;;;13.93;54.68
32197;BME280;18697;42.770;23.400;2022-12-29T11:19:22;96499.16;;;13.85;55.11
32197;BME280;18697;42.770;23.400;2022-12-29T11:21:48;96497.56;;;14.30;54.10
32197;BME280;18697;42.770;23.400;2022-12-29T11:24:26;96491.50;;;14.31;54.58
32197;BME280;18697;42.770;23.400;2022-12-29T11:26:55;96494.44;;;14.64;53.89
32197;BME280;18697;42.770;23.400;2022-12-29T11:29:36;96489.25;;;15.14;52.57
32197;BME280;18697;42.770;23.400;2022-12-29T11:32:10;96491.63;;;15.39;51.64
32197;BME280;18697;42.770;23.400;2022-12-29T11:34:35;96489.31;;;15.62;51.04
32197;BME280;18697;42.770;23.400;2022-12-29T11:42:03;96476.38;;;15.88;49.38
32197;BME280;18697;42.770;23.400;2022-12-29T11:44:31;96476.47;;;15.94;49.11
32197;BME280;18697;42.770;23.400;2022-12-29T11:46:59;96483.19;;;16.11;49.44
32197;BME280;18697;42.770;23.400;2022-12-29T11:49:24;96481.19;;;16.26;48.62
32197;BME280;18697;42.770;23.400;2022-12-29T11:51:51;96473.44;;;16.51;47.09
32197;BME280;18697;42.770;23.400;2022-12-29T11:54:29;96464.84;;;16.54;47.68
32197;BME280;18697;42.770;23.400;2022-12-29T11:56:56;96467.16;;;16.41;47.45
32197;BME280;18697;42.770;23.400;2022-12-29T12:01:50;96464.09;;;16.68;47.30
32197;BME280;18697;42.770;23.400;2022-12-29T12:04:16;96461.28;;;16.68;47.90
32197;BME280;18697;42.770;23.400;2022-12-29T12:06:47;96464.84;;;16.84;47.02
32197;BME280;18697;42.770;23.400;2022-12-29T12:09:25;96458.94;;;16.96;46.39
32197;BME280;18697;42.770;23.400;2022-12-29T12:11:52;96452.25;;;16.94;45.88
32197;BME280;18697;42.770;23.400;2022-12-29T12:14:22;96454.38;;;16.99;46.55
32197;BME280;18697;42.770;23.400;2022-12-29T12:20:00;96455.53;;;17.07;46.54
32197;BME280;18697;42.770;23.400;2022-12-29T12:35:10;96430.00;;;17.05;44.69
32197;BME280;18697;42.770;23.400;2022-12-29T12:37:48;96430.00;;;17.05;45.31
32197;BME280;18697;42.770;23.400;2022-12-29T12:40:28;96433.69;;;16.96;44.91
32197;BME280;18697;42.770;23.400;2022-12-29T12:48:37;96430.63;;;16.65;46.81
32197;BME280;18697;42.770;23.400;2022-12-29T12:51:25;96428.13;;;16.67;46.61
32197;BME280;18697;42.770;23.400;2022-12-29T12:56:47;96433.03;;;16.87;46.04
32197;BME280;18697;42.770;23.400;2022-12-29T13:15:19;96427.47;;;15.51;48.54
32197;BME280;18697;42.770;23.400;2022-12-29T13:18:13;96427.78;;;15.29;49.72
32197;BME280;18697;42.770;23.400;2022-12-29T13:20:47;96428.09;;;14.98;50.76
32197;BME280;18697;42.770;23.400;2022-12-29T13:25:51;96426.13;;;14.89;50.81
32197;BME280;18697;42.770;23.400;2022-12-29T13:29:06;96434.72;;;15.33;49.43
32197;BME280;18697;42.770;23.400;2022-12-29T13:36:06;96442.38;;;14.67;53.97
32197;BME280;18697;42.770;23.400;2022-12-29T13:38:39;96440.66;;;14.69;51.72
32197;BME280;18697;42.770;23.400;2022-12-29T13:41:08;96439.44;;;14.61;53.60
32197;BME280;18697;42.770;23.400;2022-12-29T13:43:36;96432.81;;;14.31;53.17
32197;BME280;18697;42.770;23.400;2022-12-29T13:46:09;96430.38;;;14.15;53.29
32197;BME280;18697;42.770;23.400;2022-12-29T13:51:01;96428.72;;;13.99;53.92
32197;BME280;18697;42.770;23.400;2022-12-29T13:53:34;96441.75;;;13.47;55.28
32197;BME280;18697;42.770;23.400;2022-12-29T14:11:21;96438.94;;;13.47;57.13
32197;BME280;18697;42.770;23.400;2022-12-29T14:13:46;96441.75;;;13.57;58.80
32197;BME280;18697;42.770;23.400;2022-12-29T14:16:29;96443.00;;;13.65;59.01
32197;BME280;18697;42.770;23.400;2022-12-29T14:18:56;96446.25;;;13.63;58.21
32197;BME280;18697;42.770;23.400;2022-12-29T14:21:24;96439.91;;;13.63;58.72
32197;BME280;18697;42.770;23.400;2022-12-29T14:23:53;96445.63;;;13.59;57.83
32197;BME280;18697;42.770;23.400;2022-12-29T14:28:53;96457.56;;;13.51;58.83
32197;BME280;18697;42.770;23.400;2022-12-29T14:38:59;96450.88;;;13.30;59.04
32197;BME280;18697;42.770;23.400;2022-12-29T14:41:26;96456.13;;;13.19;58.90
32197;BME280;18697;42.770;23.400;2022-12-29T14:43:57;96450.66;;;13.15;58.20
32197;BME280;18697;42.770;23.400;2022-12-29T14:46:23;96463.41;;;13.16;58.94
32197;BME280;18697;42.770;23.400;2022-12-29T14:48:52;96469.31;;;13.18;58.06
32197;BME280;18697;42.770;23.400;2022-12-29T14:51:21;96462.75;;;13.12;57.89
32197;BME280;18697;42.770;23.400;2022-12-29T14:53:53;96467.69;;;13.08;58.02
32197;BME280;18697;42.770;23.400;2022-12-29T14:56:18;96463.31;;;12.98;58.88
32197;BME280;18697;42.770;23.400;2022-12-29T15:01:22;96462.28;;;12.73;60.50
32197;BME280;18697;42.770;23.400;2022-12-29T15:03:49;96458.84;;;12.60;61.26
32197;BME280;18697;42.770;23.400;2022-12-29T15:06:15;96459.13;;;12.53;61.28
32197;BME280;18697;42.770;23.400;2022-12-29T15:08:46;96457.38;;;12.46;61.75
32197;BME280;18697;42.770;23.400;2022-12-29T15:11:14;96465.09;;;12.42;60.81
32197;BME280;18697;42.770;23.400;2022-12-29T15:13:41;96463.28;;;12.48;60.56
32197;BME280;18697;42.770;23.400;2022-12-29T15:16:26;96462.97;;;12.46;61.17
32197;BME280;18697;42.770;23.400;2022-12-29T15:18:54;96465.56;;;12.41;60.82
32197;BME280;18697;42.770;23.400;2022-12-29T15:21:24;96461.81;;;12.35;61.46
32197;BME280;18697;42.770;23.400;2022-12-29T15:23:50;96464.03;;;12.18;61.11
32197;BME280;18697;42.770;23.400;2022-12-29T15:26:15;96470.31;;;12.09;61.34
32197;BME280;18697;42.770;23.400;2022-12-29T15:28:47;96461.38;;;11.93;61.51
32197;BME280;18697;42.770;23.400;2022-12-29T15:31:17;96464.47;;;11.73;62.24
32197;BME280;18697;42.770;23.400;2022-12-29T15:33:43;96469.94;;;11.64;62.94
32197;BME280;18697;42.770;23.400;2022-12-29T15:38:44;96462.28;;;11.55;62.88
32197;BME280;18697;42.770;23.400;2022-12-29T15:41:23;96464.78;;;11.40;63.41
32197;BME280;18697;42.770;23.400;2022-12-29T15:46:18;96467.22;;;11.04;63.89
32197;BME280;18697;42.770;23.400;2022-12-29T15:48:44;96475.22;;;10.76;64.50